createdAt,value
2018-09-13T00:00:33.943Z,931.52
2018-09-13T00:01:33.964Z,931.47
2018-09-13T00:02:33.976Z,931.48
2018-09-13T00:03:34.023Z,931.47
2018-09-13T00:04:34.060Z,931.44
2018-09-13T00:05:34.403Z,931.42
2018-09-13T00:06:34.273Z,931.51
2018-09-13T00:07:34.211Z,931.51
2018-09-13T00:08:34.221Z,931.49
2018-09-13T00:09:34.309Z,931.52
2018-09-13T00:10:34.309Z,931.48
2018-09-13T00:11:34.658Z,931.51
2018-09-13T00:12:34.559Z,931.49
2018-09-13T00:13:34.452Z,931.45
2018-09-13T00:14:34.492Z,931.47
2018-09-13T00:15:34.587Z,931.52
2018-09-13T00:16:34.587Z,931.47
2018-09-13T00:17:34.937Z,931.50
2018-09-13T00:18:34.684Z,931.49
2018-09-13T00:19:34.730Z,931.45
2018-09-13T00:20:34.956Z,931.42
2018-09-13T00:21:34.788Z,931.43
2018-09-13T00:22:35.002Z,931.48
2018-09-13T00:23:34.878Z,931.47
2018-09-13T00:24:34.924Z,931.47
2018-09-13T00:25:34.976Z,931.48
2018-09-13T00:26:35.007Z,931.50
2018-09-13T00:27:35.258Z,931.51
2018-09-13T00:28:35.114Z,931.48
2018-09-13T00:29:35.184Z,931.47
2018-09-13T00:30:35.192Z,931.46
2018-09-13T00:31:35.244Z,931.46
2018-09-13T00:32:35.279Z,931.46
2018-09-13T00:33:35.626Z,931.49
2018-09-13T00:34:35.501Z,931.47
2018-09-13T00:35:35.415Z,931.42
2018-09-13T00:36:35.459Z,931.49
2018-09-13T00:37:35.485Z,931.43
2018-09-13T00:38:35.511Z,931.60
2018-09-13T00:39:35.584Z,931.52
2018-09-13T00:40:35.903Z,931.49
2018-09-13T00:41:35.664Z,931.44
2018-09-13T00:42:35.707Z,931.38
2018-09-13T00:43:35.736Z,931.42
2018-09-13T00:44:35.803Z,931.40
2018-09-13T00:45:35.841Z,931.37
2018-09-13T00:46:36.020Z,931.36
2018-09-13T00:47:36.220Z,931.38
2018-09-13T00:48:35.966Z,931.40
2018-09-13T00:49:36.020Z,931.38
2018-09-13T00:50:36.049Z,931.39
2018-09-13T00:51:36.101Z,931.40
2018-09-13T00:52:36.294Z,931.45
2018-09-13T00:53:36.188Z,931.40
2018-09-13T00:54:36.257Z,931.49
2018-09-13T00:55:36.268Z,931.52
2018-09-13T00:56:36.356Z,931.39
2018-09-13T00:57:36.728Z,931.47
2018-09-13T00:58:36.568Z,931.45
2018-09-13T00:59:36.454Z,931.57
2018-09-13T01:00:36.488Z,931.43
2018-09-13T01:01:36.536Z,931.38
2018-09-13T01:02:36.577Z,931.44
2018-09-13T01:03:36.869Z,931.38
2018-09-13T01:04:36.650Z,931.44
2018-09-13T01:05:36.697Z,931.42
2018-09-13T01:06:36.742Z,931.40
2018-09-13T01:07:36.794Z,931.40
2018-09-13T01:08:36.833Z,931.43
2018-09-13T01:09:37.062Z,931.37
2018-09-13T01:10:36.887Z,931.34
2018-09-13T01:11:36.940Z,931.38
2018-09-13T01:12:37.001Z,931.37
2018-09-13T01:13:37.034Z,931.39
2018-09-13T01:14:37.377Z,931.31
2018-09-13T01:15:37.303Z,931.33
2018-09-13T01:16:37.154Z,931.33
2018-09-13T01:17:37.220Z,931.31
2018-09-13T01:19:10.480Z,931.32
2018-09-13T01:19:37.295Z,931.26
2018-09-13T01:20:37.647Z,931.29
2018-09-13T01:21:37.578Z,931.30
2018-09-13T01:22:37.448Z,931.31
2018-09-13T01:23:37.493Z,931.34
2018-09-13T01:24:37.524Z,931.33
2018-09-13T01:25:37.563Z,931.35
2018-09-13T01:26:37.893Z,931.34
2018-09-13T01:27:37.786Z,931.33
2018-09-13T01:28:37.697Z,931.36
2018-09-13T01:29:37.710Z,931.34
2018-09-13T01:30:37.774Z,931.31
2018-09-13T01:31:37.829Z,931.33
2018-09-13T01:32:38.154Z,931.35
2018-09-13T01:34:11.117Z,931.32
2018-09-13T01:34:37.956Z,931.29
2018-09-13T01:35:37.993Z,931.30
2018-09-13T01:36:38.021Z,931.25
2018-09-13T01:37:38.079Z,931.29
2018-09-13T01:38:39.933Z,931.27
2018-09-13T01:39:38.313Z,931.23
2018-09-13T01:40:38.180Z,931.24
2018-09-13T01:41:38.244Z,931.22
2018-09-13T01:42:38.277Z,931.25
2018-09-13T01:43:38.316Z,931.28
2018-09-13T01:44:38.656Z,931.24
2018-09-13T01:45:38.604Z,931.22
2018-09-13T01:46:38.448Z,931.27
2018-09-13T01:47:38.473Z,931.22
2018-09-13T01:48:38.512Z,931.18
2018-09-13T01:49:38.574Z,931.24
2018-09-13T01:50:38.910Z,931.23
2018-09-13T01:51:38.752Z,931.20
2018-09-13T01:52:38.689Z,931.28
2018-09-13T01:53:38.753Z,931.21
2018-09-13T01:54:38.769Z,931.14
2018-09-13T01:55:38.803Z,931.15
2018-09-13T01:56:39.089Z,931.10
2018-09-13T01:57:38.894Z,931.18
2018-09-13T01:58:38.934Z,931.12
2018-09-13T01:59:38.997Z,931.18
2018-09-13T02:00:39.008Z,931.14
2018-09-13T02:01:39.163Z,931.14
2018-09-13T02:02:39.383Z,931.06
2018-09-13T02:03:39.138Z,931.13
2018-09-13T02:04:39.204Z,931.09
2018-09-13T02:05:39.236Z,931.13
2018-09-13T02:06:39.281Z,931.12
2018-09-13T02:07:39.439Z,931.05
2018-09-13T02:08:39.432Z,931.12
2018-09-13T02:09:39.424Z,931.06
2018-09-13T02:10:39.463Z,931.05
2018-09-13T02:11:39.499Z,931.06
2018-09-13T02:12:39.546Z,931.02
2018-09-13T02:13:39.728Z,931.01
2018-09-13T02:14:39.638Z,931.06
2018-09-13T02:15:39.698Z,931.05
2018-09-13T02:16:39.713Z,931.01
2018-09-13T02:17:39.755Z,930.96
2018-09-13T02:18:39.812Z,930.97
2018-09-13T02:19:39.861Z,930.98
2018-09-13T02:20:39.896Z,930.95
2018-09-13T02:21:39.932Z,930.97
2018-09-13T02:22:39.960Z,930.98
2018-09-13T02:23:40.254Z,930.92
2018-09-13T02:24:40.159Z,930.97
2018-09-13T02:25:40.107Z,930.92
2018-09-13T02:26:40.144Z,930.92
2018-09-13T02:27:40.192Z,930.95
2018-09-13T02:28:40.242Z,930.92
2018-09-13T02:29:40.497Z,930.95
2018-09-13T02:30:40.404Z,930.95
2018-09-13T02:31:40.340Z,930.92
2018-09-13T02:32:40.392Z,930.89
2018-09-13T02:33:40.438Z,930.88
2018-09-13T02:34:40.494Z,930.89
2018-09-13T02:35:40.814Z,930.93
2018-09-13T02:36:40.673Z,930.96
2018-09-13T02:37:40.603Z,930.89
2018-09-13T02:38:40.650Z,930.93
2018-09-13T02:39:40.711Z,930.93
2018-09-13T02:40:40.737Z,930.84
2018-09-13T02:41:40.789Z,930.90
2018-09-13T02:42:41.059Z,930.89
2018-09-13T02:43:40.867Z,930.85
2018-09-13T02:44:40.896Z,930.81
2018-09-13T02:45:40.963Z,930.85
2018-09-13T02:46:41.012Z,930.88
2018-09-13T02:47:41.058Z,930.87
2018-09-13T02:48:41.237Z,930.82
2018-09-13T02:49:41.399Z,930.84
2018-09-13T02:50:41.219Z,930.81
2018-09-13T02:51:41.258Z,930.83
2018-09-13T02:52:41.237Z,930.83
2018-09-13T02:53:41.304Z,930.80
2018-09-13T02:54:41.493Z,930.76
2018-09-13T02:55:41.366Z,930.78
2018-09-13T02:56:41.425Z,930.81
2018-09-13T02:57:41.497Z,930.74
2018-09-13T02:58:41.514Z,930.76
2018-09-13T02:59:41.833Z,930.77
2018-09-13T03:00:41.603Z,930.72
2018-09-13T03:01:41.627Z,930.68
2018-09-13T03:02:41.678Z,930.66
2018-09-13T03:03:41.759Z,930.68
2018-09-13T03:04:41.864Z,930.59
2018-09-13T03:05:41.807Z,930.69
2018-09-13T03:06:41.862Z,930.57
2018-09-13T03:07:41.923Z,930.59
2018-09-13T03:08:41.907Z,930.57
2018-09-13T03:09:42.221Z,930.55
2018-09-13T03:10:42.053Z,930.51
2018-09-13T03:11:42.106Z,930.53
2018-09-13T03:12:42.121Z,930.47
2018-09-13T03:13:42.171Z,930.50
2018-09-13T03:14:42.283Z,930.48
2018-09-13T03:15:42.255Z,930.48
2018-09-13T03:16:42.314Z,930.46
2018-09-13T03:17:42.324Z,930.47
2018-09-13T03:18:42.375Z,930.46
2018-09-13T03:19:42.434Z,930.51
2018-09-13T03:20:42.552Z,930.46
2018-09-13T03:21:42.522Z,930.45
2018-09-13T03:22:42.591Z,930.39
2018-09-13T03:23:42.595Z,930.40
2018-09-13T03:24:42.629Z,930.38
2018-09-13T03:25:42.763Z,930.38
2018-09-13T03:26:43.003Z,930.34
2018-09-13T03:27:42.741Z,930.34
2018-09-13T03:28:42.796Z,930.34
2018-09-13T03:29:42.839Z,930.40
2018-09-13T03:30:42.863Z,930.33
2018-09-13T03:31:42.934Z,930.32
2018-09-13T03:32:43.092Z,930.34
2018-09-13T03:33:42.986Z,930.35
2018-09-13T03:34:43.030Z,930.33
2018-09-13T03:35:43.089Z,930.37
2018-09-13T03:36:43.132Z,930.31
2018-09-13T03:37:43.424Z,930.36
2018-09-13T03:38:43.304Z,930.40
2018-09-13T03:39:43.241Z,930.43
2018-09-13T03:40:43.281Z,930.27
2018-09-13T03:41:43.321Z,930.26
2018-09-13T03:42:43.364Z,930.36
2018-09-13T03:43:43.670Z,930.28
2018-09-13T03:44:43.482Z,930.28
2018-09-13T03:45:43.537Z,930.23
2018-09-13T03:46:43.544Z,930.25
2018-09-13T03:47:43.603Z,930.25
2018-09-13T03:48:43.742Z,930.15
2018-09-13T03:49:43.667Z,930.21
2018-09-13T03:50:43.709Z,930.26
2018-09-13T03:51:43.757Z,930.23
2018-09-13T03:52:43.861Z,930.21
2018-09-13T03:53:44.110Z,930.22
2018-09-13T03:54:43.894Z,930.21
2018-09-13T03:55:43.947Z,930.21
2018-09-13T03:56:43.974Z,930.18
2018-09-13T03:57:44.035Z,930.18
2018-09-13T03:58:44.450Z,930.19
2018-09-13T03:59:44.095Z,930.13
2018-09-13T04:00:44.150Z,930.07
2018-09-13T04:01:44.180Z,930.09
2018-09-13T04:02:44.223Z,930.08
2018-09-13T04:03:44.258Z,930.05
2018-09-13T04:04:44.563Z,929.99
2018-09-13T04:05:44.352Z,930.15
2018-09-13T04:06:44.403Z,930.04
2018-09-13T04:07:44.449Z,930.08
2018-09-13T04:08:44.493Z,930.10
2018-09-13T04:09:44.668Z,930.06
2018-09-13T04:10:44.580Z,930.09
2018-09-13T04:11:44.604Z,930.12
2018-09-13T04:12:44.659Z,930.02
2018-09-13T04:13:44.695Z,930.15
2018-09-13T04:14:45.003Z,930.10
2018-09-13T04:15:44.823Z,930.08
2018-09-13T04:16:44.824Z,930.01
2018-09-13T04:17:44.906Z,930.03
2018-09-13T04:18:44.986Z,929.97
2018-09-13T04:19:45.058Z,929.95
2018-09-13T04:20:45.016Z,929.96
2018-09-13T04:21:45.032Z,929.96
2018-09-13T04:22:45.122Z,930.00
2018-09-13T04:23:45.137Z,929.87
2018-09-13T04:24:45.413Z,929.90
2018-09-13T04:25:45.261Z,929.81
2018-09-13T04:26:45.238Z,929.77
2018-09-13T04:27:45.300Z,929.82
2018-09-13T04:28:45.336Z,929.84
2018-09-13T04:29:45.496Z,929.75
2018-09-13T04:30:45.679Z,929.71
2018-09-13T04:31:45.480Z,929.83
2018-09-13T04:32:45.524Z,929.71
2018-09-13T04:33:45.571Z,929.66
2018-09-13T04:34:45.610Z,929.72
2018-09-13T04:35:46.093Z,929.58
2018-09-13T04:36:45.786Z,929.57
2018-09-13T04:37:45.716Z,929.59
2018-09-13T04:38:45.765Z,929.54
2018-09-13T04:39:45.853Z,929.49
2018-09-13T04:40:45.846Z,929.54
2018-09-13T04:41:46.150Z,929.56
2018-09-13T04:42:45.922Z,929.53
2018-09-13T04:43:45.975Z,929.52
2018-09-13T04:44:46.025Z,929.47
2018-09-13T04:45:46.084Z,929.54
2018-09-13T04:46:46.197Z,929.42
2018-09-13T04:47:46.554Z,929.47
2018-09-13T04:48:46.202Z,929.45
2018-09-13T04:49:46.249Z,929.36
2018-09-13T04:50:46.269Z,929.37
2018-09-13T04:51:46.301Z,929.34
2018-09-13T04:52:46.405Z,929.32
2018-09-13T04:53:46.631Z,929.33
2018-09-13T04:54:46.545Z,929.31
2018-09-13T04:55:46.495Z,929.29
2018-09-13T04:56:46.538Z,929.34
2018-09-13T04:57:46.562Z,929.23
2018-09-13T04:58:46.616Z,929.30
2018-09-13T04:59:47.208Z,929.26
2018-09-13T05:00:46.943Z,929.22
2018-09-13T05:01:46.739Z,929.17
2018-09-13T05:02:46.846Z,929.22
2018-09-13T05:03:46.826Z,929.17
2018-09-13T05:04:46.887Z,929.19
2018-09-13T05:05:47.212Z,929.18
2018-09-13T05:06:46.941Z,929.14
2018-09-13T05:07:46.978Z,929.12
2018-09-13T05:08:47.035Z,929.13
2018-09-13T05:09:47.072Z,929.13
2018-09-13T05:10:47.376Z,929.15
2018-09-13T05:11:47.213Z,929.04
2018-09-13T05:12:47.289Z,929.07
2018-09-13T05:13:47.256Z,929.05
2018-09-13T05:14:47.282Z,929.06
2018-09-13T05:15:47.426Z,929.06
2018-09-13T05:16:47.767Z,928.96
2018-09-13T05:17:47.401Z,928.99
2018-09-13T05:18:47.495Z,929.02
2018-09-13T05:19:47.522Z,929.01
2018-09-13T05:20:47.545Z,929.00
2018-09-13T05:21:47.675Z,929.08
2018-09-13T05:22:47.637Z,928.95
2018-09-13T05:23:47.677Z,929.02
2018-09-13T05:24:47.701Z,928.99
2018-09-13T05:25:47.764Z,929.00
2018-09-13T05:26:47.807Z,929.00
2018-09-13T05:27:48.100Z,928.98
2018-09-13T05:28:47.880Z,929.00
2018-09-13T05:29:47.973Z,928.94
2018-09-13T05:30:47.957Z,928.97
2018-09-13T05:31:48.142Z,928.92
2018-09-13T05:32:48.135Z,928.86
2018-09-13T05:33:48.119Z,928.88
2018-09-13T05:34:48.126Z,928.86
2018-09-13T05:35:48.165Z,928.88
2018-09-13T05:36:48.234Z,928.93
2018-09-13T05:37:48.521Z,928.90
2018-09-13T05:38:48.651Z,928.92
2018-09-13T05:39:48.391Z,929.10
2018-09-13T05:40:48.396Z,928.89
2018-09-13T05:41:48.442Z,928.90
2018-09-13T05:42:48.554Z,928.94
2018-09-13T05:43:48.523Z,928.78
2018-09-13T05:44:48.715Z,928.86
2018-09-13T05:45:48.604Z,928.83
2018-09-13T05:46:48.633Z,928.89
2018-09-13T05:47:48.686Z,928.86
2018-09-13T05:48:48.733Z,928.81
2018-09-13T05:49:49.022Z,928.88
2018-09-13T05:50:48.900Z,928.86
2018-09-13T05:51:48.857Z,928.75
2018-09-13T05:52:48.892Z,928.72
2018-09-13T05:53:48.925Z,928.70
2018-09-13T05:54:49.005Z,928.74
2018-09-13T05:55:49.041Z,928.66
2018-09-13T05:56:49.304Z,928.70
2018-09-13T05:57:49.114Z,928.61
2018-09-13T05:58:49.193Z,928.62
2018-09-13T05:59:49.196Z,928.69
2018-09-13T06:00:49.214Z,928.60
2018-09-13T06:01:49.353Z,928.66
2018-09-13T06:02:49.613Z,928.61
2018-09-13T06:03:49.353Z,928.60
2018-09-13T06:04:49.379Z,928.57
2018-09-13T06:05:49.438Z,928.52
2018-09-13T06:06:49.481Z,928.55
2018-09-13T06:07:49.531Z,928.61
2018-09-13T06:08:49.671Z,928.63
2018-09-13T06:09:49.911Z,928.57
2018-09-13T06:10:49.715Z,928.59
2018-09-13T06:11:49.697Z,928.63
2018-09-13T06:12:49.717Z,928.66
2018-09-13T06:13:49.795Z,928.57
2018-09-13T06:14:50.123Z,928.54
2018-09-13T06:15:49.956Z,928.51
2018-09-13T06:16:49.892Z,928.63
2018-09-13T06:17:49.961Z,928.53
2018-09-13T06:18:49.998Z,928.55
2018-09-13T06:19:50.073Z,928.61
2018-09-13T06:20:50.329Z,928.52
2018-09-13T06:21:50.393Z,928.77
2018-09-13T06:22:50.171Z,928.68
2018-09-13T06:23:50.217Z,928.55
2018-09-13T06:24:50.239Z,928.44
2018-09-13T06:25:50.290Z,928.49
2018-09-13T06:26:50.464Z,928.54
2018-09-13T06:27:50.613Z,928.44
2018-09-13T06:28:50.403Z,928.40
2018-09-13T06:29:50.445Z,928.40
2018-09-13T06:30:50.487Z,928.38
2018-09-13T06:31:50.525Z,928.42
2018-09-13T06:32:50.559Z,928.34
2018-09-13T06:33:50.964Z,928.38
2018-09-13T06:34:50.638Z,928.52
2018-09-13T06:35:50.713Z,928.38
2018-09-13T06:36:50.744Z,928.38
2018-09-13T06:37:50.807Z,928.43
2018-09-13T06:38:50.941Z,928.43
2018-09-13T06:39:51.115Z,928.28
2018-09-13T06:40:50.959Z,928.30
2018-09-13T06:41:50.973Z,928.32
2018-09-13T06:42:51.008Z,928.29
2018-09-13T06:43:51.050Z,928.41
2018-09-13T06:44:51.094Z,928.28
2018-09-13T06:45:51.232Z,928.28
2018-09-13T06:46:51.187Z,928.36
2018-09-13T06:47:51.222Z,928.28
2018-09-13T06:48:51.268Z,928.31
2018-09-13T06:49:51.303Z,928.20
2018-09-13T06:50:51.593Z,928.29
2018-09-13T06:51:51.392Z,928.35
2018-09-13T06:52:51.436Z,928.25
2018-09-13T06:53:51.517Z,928.25
2018-09-13T06:54:51.515Z,928.31
2018-09-13T06:55:51.638Z,928.27
2018-09-13T06:56:51.878Z,928.24
2018-09-13T06:57:51.632Z,928.23
2018-09-13T06:58:51.670Z,928.23
2018-09-13T06:59:51.711Z,928.26
2018-09-13T07:00:51.811Z,928.29
2018-09-13T07:01:51.909Z,928.20
2018-09-13T07:02:51.831Z,928.26
2018-09-13T07:03:51.884Z,928.25
2018-09-13T07:04:51.937Z,928.27
2018-09-13T07:05:51.978Z,928.33
2018-09-13T07:06:52.267Z,928.30
2018-09-13T07:07:52.082Z,928.38
2018-09-13T07:08:52.120Z,928.21
2018-09-13T07:09:52.148Z,928.25
2018-09-13T07:10:52.162Z,928.23
2018-09-13T07:11:52.327Z,928.24
2018-09-13T07:12:52.275Z,928.27
2018-09-13T07:13:52.356Z,928.30
2018-09-13T07:14:52.357Z,928.29
2018-09-13T07:15:52.393Z,928.36
2018-09-13T07:16:52.430Z,928.30
2018-09-13T07:17:52.792Z,928.27
2018-09-13T07:18:52.515Z,928.38
2018-09-13T07:19:52.568Z,928.42
2018-09-13T07:20:52.613Z,928.57
2018-09-13T07:21:52.676Z,928.36
2018-09-13T07:22:52.735Z,928.36
2018-09-13T07:23:52.815Z,928.35
2018-09-13T07:24:52.835Z,928.49
2018-09-13T07:25:52.806Z,928.37
2018-09-13T07:26:52.900Z,928.40
2018-09-13T07:27:52.880Z,928.41
2018-09-13T07:28:53.203Z,928.38
2018-09-13T07:29:53.291Z,928.37
2018-09-13T07:30:53.079Z,928.31
2018-09-13T07:31:53.056Z,928.36
2018-09-13T07:32:53.106Z,928.39
2018-09-13T07:33:53.172Z,928.36
2018-09-13T07:34:53.299Z,928.40
2018-09-13T07:35:53.248Z,928.29
2018-09-13T07:36:53.343Z,928.34
2018-09-13T07:37:53.329Z,928.33
2018-09-13T07:38:53.363Z,928.56
2018-09-13T07:39:53.658Z,928.46
2018-09-13T07:40:53.793Z,928.43
2018-09-13T07:41:53.462Z,928.40
2018-09-13T07:42:53.640Z,928.41
2018-09-13T07:43:53.589Z,928.37
2018-09-13T07:44:53.603Z,928.37
2018-09-13T07:45:53.769Z,928.38
2018-09-13T07:46:53.932Z,928.33
2018-09-13T07:47:53.757Z,928.43
2018-09-13T07:48:53.800Z,928.35
2018-09-13T07:49:54.053Z,928.35
2018-09-13T07:50:53.857Z,928.29
2018-09-13T07:51:54.206Z,928.30
2018-09-13T07:52:53.939Z,928.40
2018-09-13T07:53:53.976Z,928.43
2018-09-13T07:54:54.018Z,928.36
2018-09-13T07:55:54.072Z,928.36
2018-09-13T07:56:54.235Z,928.37
2018-09-13T07:57:54.168Z,928.44
2018-09-13T07:58:54.194Z,928.32
2018-09-13T07:59:54.263Z,928.39
2018-09-13T08:00:54.273Z,928.37
2018-09-13T08:01:54.581Z,928.32
2018-09-13T08:02:54.374Z,928.33
2018-09-13T08:03:54.425Z,928.35
2018-09-13T08:04:54.486Z,928.36
2018-09-13T08:05:54.487Z,928.44
2018-09-13T08:06:54.784Z,928.42
2018-09-13T08:07:54.625Z,928.43
2018-09-13T08:08:54.664Z,928.47
2018-09-13T08:09:54.669Z,928.47
2018-09-13T08:10:54.701Z,928.43
2018-09-13T08:11:54.923Z,928.50
2018-09-13T08:12:55.112Z,928.51
2018-09-13T08:13:54.829Z,928.50
2018-09-13T08:14:54.881Z,928.46
2018-09-13T08:15:54.973Z,928.50
2018-09-13T08:16:54.977Z,928.53
2018-09-13T08:17:55.274Z,928.53
2018-09-13T08:18:55.150Z,928.59
2018-09-13T08:19:55.098Z,928.53
2018-09-13T08:20:55.120Z,928.51
2018-09-13T08:21:55.211Z,928.55
2018-09-13T08:22:55.255Z,928.53
2018-09-13T08:23:55.507Z,928.57
2018-09-13T08:24:55.402Z,928.53
2018-09-13T08:25:55.341Z,928.47
2018-09-13T08:26:55.415Z,928.53
2018-09-13T08:27:55.432Z,928.44
2018-09-13T08:28:55.475Z,928.51
2018-09-13T08:29:55.763Z,928.43
2018-09-13T08:30:55.683Z,928.46
2018-09-13T08:31:55.606Z,928.40
2018-09-13T08:32:55.639Z,928.47
2018-09-13T08:33:55.678Z,928.49
2018-09-13T08:34:55.919Z,928.52
2018-09-13T08:35:56.028Z,928.60
2018-09-13T08:36:55.850Z,928.62
2018-09-13T08:37:55.855Z,928.51
2018-09-13T08:38:55.887Z,928.56
2018-09-13T08:39:55.989Z,928.59
2018-09-13T08:40:55.980Z,928.69
2018-09-13T08:41:56.284Z,928.64
2018-09-13T08:42:56.232Z,928.59
2018-09-13T08:43:56.148Z,928.58
2018-09-13T08:44:56.124Z,928.67
2018-09-13T08:45:56.187Z,928.71
2018-09-13T08:46:56.218Z,928.61
2018-09-13T08:47:56.566Z,928.63
2018-09-13T08:48:56.397Z,928.66
2018-09-13T08:49:56.361Z,928.61
2018-09-13T08:50:56.414Z,928.66
2018-09-13T08:51:56.484Z,928.61
2018-09-13T08:52:56.477Z,928.60
2018-09-13T08:53:56.792Z,928.65
2018-09-13T08:54:56.873Z,928.67
2018-09-13T08:55:56.657Z,928.65
2018-09-13T08:56:56.699Z,928.65
2018-09-13T08:57:56.691Z,928.69
2018-09-13T08:58:56.733Z,928.66
2018-09-13T08:59:56.894Z,928.73
2018-09-13T09:00:56.832Z,928.69
2018-09-13T09:01:56.838Z,928.73
2018-09-13T09:02:56.906Z,928.70
2018-09-13T09:03:56.939Z,928.76
2018-09-13T09:04:56.995Z,928.72
2018-09-13T09:05:57.321Z,928.72
2018-09-13T09:06:57.180Z,928.76
2018-09-13T09:07:57.124Z,928.74
2018-09-13T09:08:57.158Z,928.78
2018-09-13T09:09:57.224Z,928.79
2018-09-13T09:10:57.292Z,928.78
2018-09-13T09:11:57.654Z,928.74
2018-09-13T09:12:57.603Z,928.76
2018-09-13T09:13:57.340Z,928.84
2018-09-13T09:14:57.422Z,928.79
2018-09-13T09:15:57.431Z,928.83
2018-09-13T09:16:57.477Z,928.79
2018-09-13T09:17:57.639Z,928.77
2018-09-13T09:18:57.812Z,928.76
2018-09-13T09:19:57.620Z,928.85
2018-09-13T09:20:57.651Z,928.76
2018-09-13T09:21:57.704Z,928.88
2018-09-13T09:22:57.739Z,928.76
2018-09-13T09:23:58.049Z,928.79
2018-09-13T09:24:57.836Z,928.84
2018-09-13T09:25:57.861Z,928.84
2018-09-13T09:26:57.896Z,928.87
2018-09-13T09:27:57.956Z,928.92
2018-09-13T09:28:58.102Z,929.01
2018-09-13T09:29:58.212Z,928.93
2018-09-13T09:30:58.086Z,928.86
2018-09-13T09:31:58.120Z,928.98
2018-09-13T09:32:58.176Z,928.85
2018-09-13T09:33:58.220Z,928.91
2018-09-13T09:34:58.598Z,928.92
2018-09-13T09:35:58.549Z,929.02
2018-09-13T09:36:58.342Z,928.91
2018-09-13T09:37:58.396Z,928.90
2018-09-13T09:38:58.428Z,928.92
2018-09-13T09:39:58.524Z,928.91
2018-09-13T09:40:58.614Z,928.92
2018-09-13T09:41:58.812Z,929.00
2018-09-13T09:42:58.590Z,928.90
2018-09-13T09:43:58.614Z,928.92
2018-09-13T09:44:58.666Z,928.96
2018-09-13T09:45:58.704Z,928.95
2018-09-13T09:46:58.854Z,929.03
2018-09-13T09:47:59.141Z,928.91
2018-09-13T09:48:58.839Z,929.00
2018-09-13T09:49:58.886Z,928.92
2018-09-13T09:50:58.945Z,929.01
2018-09-13T09:51:59.047Z,928.97
2018-09-13T09:52:59.115Z,929.08
2018-09-13T09:53:59.103Z,929.01
2018-09-13T09:54:59.083Z,929.06
2018-09-13T09:55:59.215Z,929.13
2018-09-13T09:56:59.169Z,929.19
2018-09-13T09:57:59.567Z,929.11
2018-09-13T09:58:59.277Z,929.17
2018-09-13T09:59:59.320Z,929.20
2018-09-13T10:00:59.349Z,929.19
2018-09-13T10:01:59.402Z,929.27
2018-09-13T10:02:59.595Z,929.39
2018-09-13T10:03:59.490Z,929.32
2018-09-13T10:04:59.531Z,929.31
2018-09-13T10:05:59.594Z,929.26
2018-09-13T10:06:59.616Z,929.31
2018-09-13T10:07:59.735Z,929.30
2018-09-13T10:08:59.717Z,929.34
2018-09-13T10:09:59.755Z,929.37
2018-09-13T10:10:59.792Z,929.37
2018-09-13T10:11:59.860Z,929.42
2018-09-13T10:13:00.116Z,929.37
2018-09-13T10:14:00.032Z,929.41
2018-09-13T10:15:00.016Z,929.42
2018-09-13T10:16:00.061Z,929.39
2018-09-13T10:17:00.050Z,929.40
2018-09-13T10:18:00.096Z,929.36
2018-09-13T10:19:00.394Z,929.43
2018-09-13T10:20:00.257Z,929.50
2018-09-13T10:21:00.230Z,929.47
2018-09-13T10:22:00.263Z,929.47
2018-09-13T10:23:00.311Z,929.51
2018-09-13T10:24:00.329Z,929.65
2018-09-13T10:25:00.374Z,929.39
2018-09-13T10:26:00.445Z,929.51
2018-09-13T10:27:00.549Z,929.52
2018-09-13T10:28:00.519Z,929.56
2018-09-13T10:29:00.548Z,929.57
2018-09-13T10:30:00.760Z,929.59
2018-09-13T10:31:00.688Z,929.51
2018-09-13T10:32:00.673Z,929.56
2018-09-13T10:33:00.788Z,929.52
2018-09-13T10:34:00.789Z,929.48
2018-09-13T10:35:01.132Z,929.60
2018-09-13T10:36:00.974Z,929.49
2018-09-13T10:37:00.901Z,929.52
2018-09-13T10:38:00.962Z,929.53
2018-09-13T10:39:00.987Z,929.50
2018-09-13T10:40:01.045Z,929.41
2018-09-13T10:41:01.321Z,929.42
2018-09-13T10:42:01.206Z,929.58
2018-09-13T10:43:01.151Z,929.45
2018-09-13T10:44:01.225Z,929.42
2018-09-13T10:45:01.252Z,929.41
2018-09-13T10:46:01.292Z,929.43
2018-09-13T10:47:01.427Z,929.44
2018-09-13T10:48:01.386Z,929.38
2018-09-13T10:49:01.429Z,929.39
2018-09-13T10:50:01.489Z,929.38
2018-09-13T10:51:01.504Z,929.32
2018-09-13T10:52:01.583Z,929.32
2018-09-13T10:53:01.682Z,929.34
2018-09-13T10:54:01.627Z,929.38
2018-09-13T10:55:01.683Z,929.34
2018-09-13T10:56:01.731Z,929.32
2018-09-13T10:57:01.750Z,929.34
2018-09-13T10:58:02.074Z,929.40
2018-09-13T10:59:01.894Z,929.37
2018-09-13T11:00:01.900Z,929.41
2018-09-13T11:01:01.960Z,929.45
2018-09-13T11:02:01.997Z,929.46
2018-09-13T11:03:02.146Z,929.50
2018-09-13T11:04:02.105Z,929.60
2018-09-13T11:05:02.128Z,929.66
2018-09-13T11:06:02.183Z,929.47
2018-09-13T11:07:02.226Z,929.48
2018-09-13T11:08:02.350Z,929.52
2018-09-13T11:09:02.318Z,929.62
2018-09-13T11:10:02.338Z,929.59
2018-09-13T11:11:02.600Z,929.56
2018-09-13T11:12:02.433Z,929.63
2018-09-13T11:13:02.460Z,929.60
2018-09-13T11:14:02.512Z,929.65
2018-09-13T11:15:02.553Z,929.69
2018-09-13T11:16:02.673Z,929.66
2018-09-13T11:17:02.643Z,929.60
2018-09-13T11:18:02.700Z,929.69
2018-09-13T11:19:03.053Z,929.68
2018-09-13T11:20:02.792Z,929.74
2018-09-13T11:21:02.841Z,929.78
2018-09-13T11:22:02.871Z,929.76
2018-09-13T11:23:02.917Z,929.79
2018-09-13T11:24:03.038Z,929.84
2018-09-13T11:25:03.049Z,929.77
2018-09-13T11:26:03.027Z,929.79
2018-09-13T11:27:03.084Z,929.79
2018-09-13T11:28:03.189Z,929.78
2018-09-13T11:29:03.306Z,929.74
2018-09-13T11:30:03.231Z,929.84
2018-09-13T11:31:03.275Z,929.85
2018-09-13T11:32:03.350Z,929.79
2018-09-13T11:33:03.353Z,929.73
2018-09-13T11:34:03.390Z,929.79
2018-09-13T11:35:03.441Z,929.74
2018-09-13T11:36:03.471Z,929.78
2018-09-13T11:37:03.521Z,929.77
2018-09-13T11:38:03.577Z,929.73
2018-09-13T11:39:03.733Z,929.74
2018-09-13T11:40:03.710Z,929.77
2018-09-13T11:41:03.869Z,929.78
2018-09-13T11:42:03.774Z,929.80
2018-09-13T11:43:03.814Z,929.81
2018-09-13T11:44:03.857Z,929.86
2018-09-13T11:45:03.892Z,929.81
2018-09-13T11:46:03.982Z,929.84
2018-09-13T11:47:03.979Z,929.86
2018-09-13T11:48:04.030Z,929.79
2018-09-13T11:49:04.149Z,929.82
2018-09-13T11:50:04.129Z,929.88
2018-09-13T11:51:04.163Z,929.88
2018-09-13T11:52:04.208Z,929.78
2018-09-13T11:53:04.259Z,929.84
2018-09-13T11:54:04.345Z,929.86
2018-09-13T11:55:04.348Z,929.86
2018-09-13T11:56:04.396Z,929.89
2018-09-13T11:57:04.421Z,929.83
2018-09-13T11:58:04.493Z,929.86
2018-09-13T11:59:04.784Z,929.93
2018-09-13T12:00:04.563Z,929.92
2018-09-13T12:01:04.640Z,929.90
2018-09-13T12:02:04.775Z,930.06
2018-09-13T12:03:04.709Z,929.98
2018-09-13T12:04:04.749Z,929.99
2018-09-13T12:05:05.049Z,930.09
2018-09-13T12:06:04.841Z,930.03
2018-09-13T12:07:04.879Z,930.11
2018-09-13T12:08:04.918Z,930.02
2018-09-13T12:09:04.963Z,930.07
2018-09-13T12:10:05.100Z,930.09
2018-09-13T12:11:05.063Z,930.00
2018-09-13T12:12:05.112Z,930.07
2018-09-13T12:13:05.155Z,930.08
2018-09-13T12:14:05.214Z,930.04
2018-09-13T12:15:05.362Z,930.09
2018-09-13T12:16:05.305Z,930.10
2018-09-13T12:17:05.391Z,930.08
2018-09-13T12:18:05.414Z,930.06
2018-09-13T12:19:05.414Z,930.04
2018-09-13T12:20:05.466Z,930.01
2018-09-13T12:21:05.625Z,930.02
2018-09-13T12:22:05.566Z,930.04
2018-09-13T12:23:05.606Z,930.12
2018-09-13T12:24:05.646Z,930.07
2018-09-13T12:25:05.750Z,930.06
2018-09-13T12:26:05.910Z,930.10
2018-09-13T12:27:05.810Z,930.05
2018-09-13T12:28:05.834Z,930.07
2018-09-13T12:29:05.898Z,930.03